Time;durP1;ratioP1;P1;durP2;ratioP2;P2;SDS_P1;SDS_P2;PMS_P1;PMS_P2;Temp;Humidity;BMP_temperature;BMP_pressure;BME280_temperature;BME280_humidity;BME280_pressure;Samples;Min_cycle;Max_cycle;Signal;HPM_P1;HPM_P2
2021/12/28 00:02:17;;;;;;;14.05;9.30;;;9.90;86.90;;;;;;5074279;28;20048;-71
2021/12/28 00:04:43;;;;;;;16.02;9.60;;;9.90;86.90;;;;;;5072718;28;20032;-71
2021/12/28 00:07:09;;;;;;;15.55;9.43;;;9.90;86.90;;;;;;5074146;28;20028;-71
2021/12/28 00:09:34;;;;;;;15.07;9.95;;;9.90;87.00;;;;;;5072439;28;20032;-71
2021/12/28 00:12:00;;;;;;;13.48;9.00;;;9.90;86.90;;;;;;5072923;28;20426;-71
2021/12/28 00:14:34;;;;;;;15.95;9.45;;;9.90;86.90;;;;;;5073256;28;20029;-71
2021/12/28 00:19:44;;;;;;;15.32;10.02;;;9.90;87.00;;;;;;5077226;28;20024;-71
2021/12/28 00:22:09;;;;;;;15.65;8.95;;;9.90;87.00;;;;;;5077737;28;20032;-71
2021/12/28 00:24:36;;;;;;;14.10;8.65;;;9.90;87.00;;;;;;5076758;28;20016;-71
2021/12/28 00:27:02;;;;;;;16.88;8.80;;;9.90;87.00;;;;;;5077459;28;20032;-71
2021/12/28 00:29:28;;;;;;;15.25;10.20;;;9.90;87.00;;;;;;5077165;28;20031;-71
2021/12/28 00:31:54;;;;;;;15.02;9.00;;;9.90;87.00;;;;;;5076384;28;20044;-71
2021/12/28 00:34:20;;;;;;;12.85;8.88;;;9.90;87.00;;;;;;5076747;28;20024;-71
2021/12/28 00:36:46;;;;;;;14.95;8.65;;;9.90;87.10;;;;;;5077029;28;20036;-71
2021/12/28 00:39:12;;;;;;;14.80;9.05;;;9.90;87.00;;;;;;5076688;28;20354;-71
2021/12/28 00:41:38;;;;;;;16.10;8.50;;;9.90;87.00;;;;;;5077820;28;20028;-71
2021/12/28 00:44:04;;;;;;;16.15;9.15;;;9.90;87.10;;;;;;5075482;28;20039;-71
2021/12/28 00:46:29;;;;;;;16.70;8.43;;;9.90;87.00;;;;;;5075987;28;20024;-71
2021/12/28 00:48:55;;;;;;;15.77;7.85;;;9.90;87.00;;;;;;5075913;28;20335;-71
2021/12/28 00:51:20;;;;;;;12.82;7.75;;;9.80;87.00;;;;;;5076011;28;20043;-71
2021/12/28 00:53:46;;;;;;;15.70;8.65;;;9.80;87.00;;;;;;5075725;28;20107;-71
2021/12/28 00:56:12;;;;;;;15.98;7.90;;;9.80;87.00;;;;;;5076075;28;20413;-71
2021/12/28 00:58:38;;;;;;;14.65;8.73;;;9.80;87.00;;;;;;5075852;28;20472;-71
2021/12/28 01:01:05;;;;;;;16.27;8.07;;;9.80;86.90;;;;;;5075513;28;20368;-71
2021/12/28 01:03:34;;;;;;;14.07;8.15;;;9.80;86.90;;;;;;5076330;28;20021;-71
2021/12/28 01:06:03;;;;;;;14.27;8.43;;;9.80;87.00;;;;;;5059256;28;20031;-71
2021/12/28 01:08:29;;;;;;;16.65;8.02;;;9.80;86.90;;;;;;5076707;28;20461;-71
2021/12/28 01:10:55;;;;;;;19.55;8.85;;;9.80;87.00;;;;;;5076917;28;20080;-71
2021/12/28 01:13:21;;;;;;;14.93;8.00;;;9.80;87.00;;;;;;5076493;28;20445;-71
2021/12/28 01:15:48;;;;;;;16.50;8.45;;;9.70;86.90;;;;;;5075976;28;20392;-71
2021/12/28 01:18:14;;;;;;;13.55;7.88;;;9.70;86.90;;;;;;5058877;28;20032;-71
2021/12/28 01:20:41;;;;;;;13.45;7.88;;;9.70;86.90;;;;;;5075586;28;20361;-71
2021/12/28 01:23:07;;;;;;;13.00;7.97;;;9.70;86.90;;;;;;5075180;28;20036;-71
2021/12/28 01:25:34;;;;;;;13.52;7.40;;;9.70;86.90;;;;;;5058954;28;20043;-71
2021/12/28 01:27:59;;;;;;;15.60;7.90;;;9.60;86.90;;;;;;5076223;28;20063;-71
2021/12/28 01:30:27;;;;;;;17.65;7.85;;;9.70;86.90;;;;;;5074896;28;20076;-71
2021/12/28 01:32:54;;;;;;;13.75;7.00;;;9.60;86.80;;;;;;5058586;28;20142;-71
2021/12/28 01:35:20;;;;;;;13.80;7.40;;;9.60;86.70;;;;;;5058283;28;20029;-71
2021/12/28 01:37:46;;;;;;;17.58;7.07;;;9.60;86.70;;;;;;5075797;28;20032;-71
2021/12/28 01:40:15;;;;;;;16.20;6.30;;;9.60;86.70;;;;;;5075729;28;20036;-71
2021/12/28 01:43:04;;;;;;;11.90;6.75;;;9.60;86.70;;;;;;5076249;28;20047;-71
2021/12/28 01:45:54;;;;;;;14.02;7.30;;;9.60;86.60;;;;;;5073851;28;20111;-71
2021/12/28 01:48:26;;;;;;;11.77;6.22;;;9.60;86.60;;;;;;5084587;28;20048;-71
2021/12/28 01:50:57;;;;;;;15.15;6.72;;;9.60;86.60;;;;;;5075923;28;20421;-71
2021/12/28 01:53:24;;;;;;;14.60;6.37;;;9.60;86.70;;;;;;5076135;28;20410;-71
2021/12/28 01:55:54;;;;;;;13.30;6.13;;;9.60;86.60;;;;;;5075797;28;20154;-71
2021/12/28 01:58:20;;;;;;;13.30;6.47;;;9.60;86.60;;;;;;5058116;28;20036;-71
2021/12/28 02:00:48;;;;;;;12.10;6.15;;;9.60;86.50;;;;;;5073913;28;20056;-71
2021/12/28 02:03:16;;;;;;;18.83;6.60;;;9.60;86.60;;;;;;5075695;28;20031;-71
2021/12/28 02:05:43;;;;;;;16.02;5.75;;;9.60;86.60;;;;;;5075295;28;20031;-71
2021/12/28 02:08:09;;;;;;;15.02;5.88;;;9.70;86.60;;;;;;5074952;28;20025;-71
2021/12/28 02:10:36;;;;;;;14.63;5.85;;;9.60;86.50;;;;;;5074170;28;20418;-71
2021/12/28 02:13:05;;;;;;;14.82;6.20;;;9.60;86.40;;;;;;5054609;28;20057;-71
2021/12/28 02:15:31;;;;;;;12.35;5.03;;;9.70;86.50;;;;;;5073837;28;20097;-72
2021/12/28 02:17:57;;;;;;;18.23;5.68;;;9.60;86.40;;;;;;5074593;28;20665;-71
2021/12/28 02:20:22;;;;;;;13.02;5.85;;;9.60;86.40;;;;;;5074467;28;20029;-71
2021/12/28 02:22:48;;;;;;;14.48;5.90;;;9.60;86.40;;;;;;5074238;28;20021;-71
2021/12/28 02:25:17;;;;;;;13.77;5.07;;;9.70;86.50;;;;;;5073961;28;20132;-71
2021/12/28 02:27:43;;;;;;;13.50;6.35;;;9.60;86.40;;;;;;5073662;28;20029;-71
2021/12/28 02:30:12;;;;;;;15.07;6.40;;;9.60;86.40;;;;;;5074820;28;20366;-71
2021/12/28 02:32:38;;;;;;;17.85;6.85;;;9.60;86.30;;;;;;5074968;28;20086;-71
2021/12/28 02:35:07;;;;;;;13.48;6.75;;;9.60;86.30;;;;;;5065811;28;20420;-71
2021/12/28 02:37:33;;;;;;;15.50;6.72;;;9.60;86.40;;;;;;5073899;28;20039;-71
2021/12/28 02:39:58;;;;;;;14.77;7.05;;;9.60;87.00;;;;;;5074847;28;20029;-71
2021/12/28 02:42:24;;;;;;;15.77;8.18;;;9.60;86.40;;;;;;5073734;28;20395;-71
2021/12/28 02:45:15;;;;;;;17.70;8.15;;;9.60;86.40;;;;;;5074380;28;20024;-71
2021/12/28 02:47:44;;;;;;;17.40;8.05;;;9.60;86.30;;;;;;5055779;28;20459;-71
2021/12/28 02:50:21;;;;;;;15.63;7.57;;;9.60;86.40;;;;;;5073440;28;20028;-71
2021/12/28 02:52:47;;;;;;;12.40;6.50;;;9.50;86.30;;;;;;5074802;28;20368;-71
2021/12/28 02:55:17;;;;;;;17.88;8.40;;;9.50;86.20;;;;;;5057245;28;20111;-71
2021/12/28 02:57:49;;;;;;;15.82;6.72;;;9.50;86.20;;;;;;5066973;28;20445;-71
2021/12/28 03:00:27;;;;;;;12.57;6.30;;;9.50;86.20;;;;;;5073386;28;20029;-71
2021/12/28 03:02:53;;;;;;;15.43;7.70;;;9.50;86.20;;;;;;5057003;28;20401;-71
2021/12/28 03:05:18;;;;;;;15.75;8.52;;;9.50;86.20;;;;;;5056837;28;20047;-71
2021/12/28 03:07:44;;;;;;;15.65;7.53;;;9.40;86.10;;;;;;5073589;28;20024;-71
2021/12/28 03:10:10;;;;;;;12.70;7.18;;;9.40;86.10;;;;;;5074450;28;20023;-71
2021/12/28 03:12:36;;;;;;;16.42;7.90;;;9.40;86.20;;;;;;5073758;28;20438;-71
2021/12/28 03:15:02;;;;;;;15.27;8.00;;;9.40;86.20;;;;;;5055726;28;20033;-71
2021/12/28 03:17:28;;;;;;;14.07;7.72;;;9.40;86.10;;;;;;5074314;28;20453;-71
2021/12/28 03:19:53;;;;;;;14.55;8.00;;;9.40;86.00;;;;;;5056823;28;20025;-71
2021/12/28 03:22:19;;;;;;;17.40;7.63;;;9.40;86.00;;;;;;5073582;28;20024;-71
2021/12/28 03:24:44;;;;;;;12.60;7.60;;;9.40;86.00;;;;;;5074422;28;20025;-71
2021/12/28 03:27:10;;;;;;;13.40;7.43;;;9.40;86.00;;;;;;5056102;28;20016;-71
2021/12/28 03:29:36;;;;;;;18.33;8.15;;;9.40;86.00;;;;;;5074309;28;20283;-71
2021/12/28 03:32:01;;;;;;;17.45;7.60;;;9.40;86.60;;;;;;5073843;28;20055;-72
2021/12/28 03:34:27;;;;;;;18.25;8.27;;;9.40;85.90;;;;;;5056283;28;20108;-71
2021/12/28 03:36:52;;;;;;;15.25;8.75;;;9.30;85.80;;;;;;5073820;28;20031;-71
2021/12/28 03:39:18;;;;;;;15.85;8.00;;;9.30;85.80;;;;;;5074368;28;20028;-71
2021/12/28 03:41:44;;;;;;;15.48;8.30;;;9.30;85.70;;;;;;5056286;28;20032;-71
2021/12/28 03:44:09;;;;;;;15.85;8.13;;;9.30;85.70;;;;;;5072978;28;20035;-71
2021/12/28 03:46:35;;;;;;;13.00;6.85;;;9.20;85.70;;;;;;5072951;28;20116;-71
2021/12/28 03:49:00;;;;;;;13.55;8.10;;;9.20;85.70;;;;;;5072893;28;20024;-71
2021/12/28 03:51:26;;;;;;;16.50;7.45;;;9.20;85.70;;;;;;5080817;28;20026;-71
2021/12/28 03:53:52;;;;;;;15.13;7.68;;;9.20;85.70;;;;;;5087828;28;20039;-71
2021/12/28 03:56:18;;;;;;;16.20;8.25;;;9.20;85.70;;;;;;5087969;28;20043;-71
2021/12/28 03:58:44;;;;;;;15.60;6.80;;;9.20;85.70;;;;;;5086305;28;20032;-71
2021/12/28 04:01:14;;;;;;;18.17;8.90;;;9.20;85.60;;;;;;5083949;28;20032;-71
2021/12/28 04:03:40;;;;;;;17.33;8.52;;;9.10;85.50;;;;;;5079843;28;20081;-66
2021/12/28 04:06:08;;;;;;;13.30;7.90;;;9.20;85.60;;;;;;5080418;28;20028;-66
2021/12/28 04:08:36;;;;;;;12.23;7.25;;;9.20;85.50;;;;;;5080063;28;20033;-66
2021/12/28 04:11:47;;;;;;;17.17;8.65;;;9.10;85.40;;;;;;5076992;28;20112;-66
2021/12/28 04:13:49;;;;;;;13.52;7.78;;;9.20;85.50;;;;;;5069667;28;20052;-66
2021/12/28 04:16:15;;;;;;;16.30;7.30;;;9.20;85.50;;;;;;5062643;28;20039;-66
2021/12/28 04:18:41;;;;;;;12.95;7.28;;;9.20;85.50;;;;;;5079549;28;20156;-66
2021/12/28 04:21:08;;;;;;;13.63;7.50;;;9.20;85.50;;;;;;5079567;28;20115;-66
2021/12/28 04:23:34;;;;;;;11.50;7.00;;;9.20;85.40;;;;;;5078852;28;20032;-66
2021/12/28 04:26:00;;;;;;;16.60;7.10;;;9.20;85.40;;;;;;5080325;28;20029;-66
2021/12/28 04:28:26;;;;;;;11.40;6.97;;;9.20;85.30;;;;;;5080467;28;20028;-66
2021/12/28 04:30:52;;;;;;;23.63;7.95;;;9.20;85.30;;;;;;5078373;28;20388;-66
2021/12/28 04:33:17;;;;;;;15.75;6.75;;;9.20;85.20;;;;;;5078968;28;20036;-66
2021/12/28 04:35:43;;;;;;;15.35;7.18;;;9.20;85.20;;;;;;5079462;28;20365;-66
2021/12/28 04:38:08;;;;;;;13.13;6.53;;;9.20;85.20;;;;;;5079042;28;20111;-67
2021/12/28 04:40:35;;;;;;;14.07;6.40;;;9.20;85.20;;;;;;5079684;28;20044;-66
2021/12/28 04:43:01;;;;;;;13.82;7.05;;;9.20;85.20;;;;;;5078792;28;20028;-66
2021/12/28 04:45:27;;;;;;;12.13;6.35;;;9.20;85.20;;;;;;5080169;28;20032;-66
2021/12/28 04:47:52;;;;;;;14.13;6.53;;;9.20;85.20;;;;;;5062203;28;20051;-66
2021/12/28 04:50:18;;;;;;;12.32;6.57;;;9.20;85.20;;;;;;5080017;28;20029;-66
2021/12/28 04:52:44;;;;;;;12.48;6.43;;;9.20;85.10;;;;;;5078227;28;20033;-66
2021/12/28 04:55:16;;;;;;;12.55;6.53;;;9.30;85.10;;;;;;5064267;28;20037;-66
2021/12/28 04:57:43;;;;;;;13.50;6.57;;;9.20;85.10;;;;;;5073345;28;20036;-66
2021/12/28 05:00:16;;;;;;;11.63;6.03;;;9.20;85.10;;;;;;5074234;28;20044;-66
2021/12/28 05:02:41;;;;;;;14.77;6.00;;;9.20;85.10;;;;;;5057190;28;20067;-66
2021/12/28 05:05:08;;;;;;;13.38;6.57;;;9.20;85.10;;;;;;5057728;28;20131;-66
2021/12/28 05:07:34;;;;;;;16.35;6.93;;;9.20;85.10;;;;;;5062447;28;20025;-66
2021/12/28 05:09:59;;;;;;;10.68;5.63;;;9.20;85.10;;;;;;5059360;28;20024;-66
2021/12/28 05:12:26;;;;;;;16.92;6.20;;;9.30;85.20;;;;;;5073693;28;20085;-66
2021/12/28 05:14:52;;;;;;;14.98;6.00;;;9.30;85.20;;;;;;5075563;28;20357;-66
2021/12/28 05:17:17;;;;;;;13.07;5.78;;;9.30;85.20;;;;;;5058412;28;20033;-66
2021/12/28 05:19:43;;;;;;;13.90;5.68;;;9.30;85.20;;;;;;5058729;28;20133;-66
2021/12/28 05:22:09;;;;;;;14.10;6.22;;;9.30;85.20;;;;;;5076483;28;20051;-66
2021/12/28 05:24:36;;;;;;;14.88;5.97;;;9.30;85.20;;;;;;5075583;28;20457;-66
2021/12/28 05:27:02;;;;;;;12.13;4.63;;;9.40;85.20;;;;;;5058763;28;20029;-66
2021/12/28 05:29:28;;;;;;;13.57;5.00;;;9.40;85.20;;;;;;5075602;28;20036;-66
2021/12/28 05:31:53;;;;;;;12.55;4.85;;;9.40;85.20;;;;;;5058691;28;20457;-66
2021/12/28 05:34:19;;;;;;;15.23;5.93;;;9.40;85.20;;;;;;5069595;28;20029;-66
2021/12/28 05:36:46;;;;;;;13.90;5.10;;;9.40;85.20;;;;;;5075230;28;20056;-66
2021/12/28 05:39:12;;;;;;;13.15;4.85;;;9.40;85.20;;;;;;5075083;28;20031;-66
2021/12/28 05:41:38;;;;;;;14.95;5.10;;;9.40;85.20;;;;;;5075631;28;20376;-66
2021/12/28 05:44:04;;;;;;;13.52;4.57;;;9.40;85.20;;;;;;5075693;28;20409;-66
2021/12/28 05:46:30;;;;;;;18.63;5.07;;;9.50;85.30;;;;;;5075722;28;20024;-66
2021/12/28 05:48:55;;;;;;;11.32;4.40;;;9.40;85.20;;;;;;5074551;28;20024;-66
2021/12/28 05:51:21;;;;;;;18.08;5.32;;;9.50;85.30;;;;;;5075396;28;20036;-66
2021/12/28 05:53:46;;;;;;;11.32;4.57;;;9.40;85.30;;;;;;5075575;28;20373;-66
2021/12/28 05:56:12;;;;;;;13.98;4.70;;;9.50;85.40;;;;;;5075557;28;20349;-66
2021/12/28 05:58:38;;;;;;;14.82;5.05;;;9.40;85.30;;;;;;5057041;28;20361;-66
2021/12/28 06:01:04;;;;;;;13.80;4.57;;;9.40;85.30;;;;;;5073387;28;20480;-66
2021/12/28 06:03:29;;;;;;;19.77;5.30;;;9.40;85.30;;;;;;5072753;28;20036;-67
2021/12/28 06:05:55;;;;;;;11.88;3.95;;;9.40;85.30;;;;;;5072445;28;20056;-67
2021/12/28 06:08:20;;;;;;;12.50;4.53;;;9.40;85.30;;;;;;5074147;28;20024;-67
2021/12/28 06:10:46;;;;;;;16.65;4.63;;;9.50;85.40;;;;;;5073375;28;20059;-67
2021/12/28 06:13:11;;;;;;;13.25;4.20;;;9.50;85.40;;;;;;5072479;28;20025;-67
2021/12/28 06:15:37;;;;;;;12.23;4.50;;;9.40;85.50;;;;;;5072677;28;20112;-67
2021/12/28 06:18:03;;;;;;;15.20;3.85;;;9.40;85.50;;;;;;5056868;28;20020;-67
2021/12/28 06:20:28;;;;;;;13.52;4.25;;;9.40;85.50;;;;;;5074165;28;20465;-67
2021/12/28 06:22:54;;;;;;;12.73;4.20;;;9.50;85.60;;;;;;5074709;28;20445;-67
2021/12/28 06:25:19;;;;;;;14.20;4.40;;;9.40;85.50;;;;;;5075030;28;20044;-67
2021/12/28 06:27:45;;;;;;;9.73;3.60;;;9.50;85.60;;;;;;5057980;28;20033;-68
2021/12/28 06:30:11;;;;;;;11.65;3.85;;;9.50;85.70;;;;;;5074231;28;20047;-67
2021/12/28 06:32:37;;;;;;;13.57;4.20;;;9.50;85.70;;;;;;5074950;28;20032;-67
2021/12/28 06:35:04;;;;;;;11.25;3.00;;;9.50;85.70;;;;;;5076027;28;20101;-67
2021/12/28 06:37:29;;;;;;;16.42;4.10;;;9.50;85.70;;;;;;5075772;28;20126;-67
2021/12/28 06:39:55;;;;;;;11.90;3.72;;;9.50;85.70;;;;;;5075708;28;20070;-67
2021/12/28 06:42:21;;;;;;;14.70;3.80;;;9.50;85.70;;;;;;5074730;28;20040;-67
2021/12/28 06:44:48;;;;;;;11.85;4.13;;;9.50;85.70;;;;;;5074614;28;20404;-67
2021/12/28 06:47:14;;;;;;;10.07;3.60;;;9.60;85.70;;;;;;5074311;28;20473;-67
2021/12/28 06:49:39;;;;;;;14.52;4.00;;;9.60;85.70;;;;;;5074086;28;20020;-67
2021/12/28 06:52:06;;;;;;;12.85;3.13;;;9.60;85.70;;;;;;5074978;28;20036;-67
2021/12/28 06:54:37;;;;;;;12.95;3.65;;;9.60;85.70;;;;;;5075247;28;20060;-67
2021/12/28 06:57:07;;;;;;;9.77;3.10;;;9.60;85.80;;;;;;5076234;28;20029;-66
2021/12/28 06:59:33;;;;;;;11.82;3.38;;;9.60;86.10;;;;;;5075505;28;20033;-66
2021/12/28 07:02:00;;;;;;;12.18;2.88;;;9.70;85.90;;;;;;5074142;28;20037;-67
2021/12/28 07:04:25;;;;;;;12.40;3.65;;;9.70;85.80;;;;;;5072302;28;20036;-67
2021/12/28 07:06:51;;;;;;;10.77;3.03;;;9.80;85.80;;;;;;5073875;28;20032;-66
2021/12/28 07:09:17;;;;;;;11.13;3.40;;;9.80;85.80;;;;;;5073680;28;20032;-67
2021/12/28 07:11:42;;;;;;;13.13;3.00;;;9.80;85.80;;;;;;5073278;28;20119;-67
2021/12/28 07:14:08;;;;;;;11.65;2.92;;;9.80;85.80;;;;;;5074212;28;20032;-66
2021/12/28 07:16:34;;;;;;;11.45;3.67;;;9.90;85.90;;;;;;5074428;28;20039;-67
2021/12/28 07:18:59;;;;;;;8.57;2.65;;;9.80;85.90;;;;;;5056411;28;20029;-66
2021/12/28 07:21:25;;;;;;;11.73;2.92;;;9.80;85.90;;;;;;5072220;28;20124;-67
2021/12/28 07:23:50;;;;;;;11.95;3.67;;;9.80;85.90;;;;;;5063082;28;20334;-66
2021/12/28 07:26:16;;;;;;;10.93;3.38;;;9.90;86.00;;;;;;5060844;28;20111;-65
2021/12/28 07:28:42;;;;;;;11.30;2.55;;;9.90;86.00;;;;;;5055723;28;20021;-65
2021/12/28 07:31:07;;;;;;;10.63;3.55;;;9.90;86.10;;;;;;5064745;28;20048;-65
2021/12/28 07:33:33;;;;;;;8.98;3.05;;;9.90;86.10;;;;;;5055980;28;20032;-66
2021/12/28 07:35:59;;;;;;;9.48;2.85;;;9.90;86.10;;;;;;5057175;28;20032;-68
2021/12/28 07:38:24;;;;;;;9.90;2.90;;;9.90;86.10;;;;;;5057561;28;20047;-66
2021/12/28 07:40:50;;;;;;;8.82;2.90;;;9.90;86.10;;;;;;5054986;28;20040;-65
2021/12/28 07:43:15;;;;;;;8.13;2.53;;;9.90;86.20;;;;;;5076339;28;20436;-66
2021/12/28 07:45:41;;;;;;;13.50;3.22;;;9.90;86.20;;;;;;5081138;28;20029;-68
2021/12/28 07:48:07;;;;;;;9.25;2.90;;;10.00;86.30;;;;;;5075580;28;20028;-66
2021/12/28 07:50:33;;;;;;;9.18;2.80;;;10.00;86.30;;;;;;5073159;28;20360;-66
2021/12/28 07:52:59;;;;;;;10.15;3.08;;;10.00;86.30;;;;;;5073265;28;20028;-66
2021/12/28 07:55:26;;;;;;;9.98;2.97;;;10.00;86.40;;;;;;5056491;28;20131;-67
2021/12/28 07:57:51;;;;;;;11.20;3.15;;;10.00;86.40;;;;;;5073447;28;20036;-67
2021/12/28 08:00:18;;;;;;;7.55;3.00;;;10.00;86.40;;;;;;5073483;28;20032;-67
2021/12/28 08:02:45;;;;;;;10.05;2.75;;;10.00;86.50;;;;;;5074453;28;20089;-66
2021/12/28 08:05:12;;;;;;;8.85;2.53;;;10.00;86.50;;;;;;5073103;28;20029;-66
2021/12/28 08:07:39;;;;;;;8.38;2.55;;;10.00;86.50;;;;;;5073367;28;20033;-66
2021/12/28 08:10:06;;;;;;;7.95;2.40;;;10.10;86.50;;;;;;5074259;28;20381;-67
2021/12/28 08:12:32;;;;;;;8.30;2.85;;;10.10;87.20;;;;;;5073830;28;20078;-66
2021/12/28 08:14:58;;;;;;;9.43;2.67;;;10.10;86.50;;;;;;5074101;28;20040;-67
2021/12/28 08:17:23;;;;;;;9.20;2.35;;;10.10;86.50;;;;;;5073781;28;20024;-66
2021/12/28 08:19:49;;;;;;;11.18;2.45;;;10.10;86.50;;;;;;5073071;28;20040;-67
2021/12/28 08:22:14;;;;;;;10.20;3.28;;;10.10;86.50;;;;;;5073275;28;20098;-67
2021/12/28 08:24:40;;;;;;;8.90;2.83;;;10.10;86.60;;;;;;5073702;28;20093;-67
2021/12/28 08:27:05;;;;;;;13.07;2.70;;;10.10;86.60;;;;;;5073131;28;20107;-67
2021/12/28 08:29:31;;;;;;;10.27;2.95;;;10.20;86.70;;;;;;5072778;28;20465;-66
2021/12/28 08:31:57;;;;;;;7.22;2.50;;;10.20;86.70;;;;;;5072564;28;20084;-66
2021/12/28 08:34:22;;;;;;;13.40;3.30;;;10.20;86.80;;;;;;5073569;28;20053;-66
2021/12/28 08:36:48;;;;;;;9.90;2.55;;;10.20;86.80;;;;;;5055025;28;20087;-66
2021/12/28 08:39:14;;;;;;;10.32;2.97;;;10.20;86.80;;;;;;5075571;28;20113;-66
2021/12/28 08:41:39;;;;;;;6.85;2.83;;;10.20;86.80;;;;;;5077307;28;20043;-66
2021/12/28 08:44:05;;;;;;;9.10;2.47;;;10.20;86.80;;;;;;5076747;28;20119;-66
2021/12/28 08:46:31;;;;;;;7.25;2.38;;;10.30;86.90;;;;;;5056693;28;20069;-66
2021/12/28 08:48:57;;;;;;;10.15;2.08;;;10.20;86.80;;;;;;5076371;28;20425;-65
2021/12/28 08:51:22;;;;;;;8.48;2.20;;;10.30;86.90;;;;;;5076071;28;20047;-66
2021/12/28 08:53:48;;;;;;;10.13;2.67;;;10.30;86.90;;;;;;5077232;28;20330;-66
2021/12/28 08:56:14;;;;;;;9.95;2.55;;;10.30;86.90;;;;;;5075876;28;20052;-67
2021/12/28 08:58:39;;;;;;;9.57;2.72;;;10.30;86.90;;;;;;5076695;28;20020;-66
2021/12/28 09:01:06;;;;;;;8.30;2.38;;;10.30;87.00;;;;;;5059332;28;20345;-65
2021/12/28 09:03:32;;;;;;;7.25;2.85;;;10.30;87.00;;;;;;5075909;28;20052;-66
2021/12/28 09:05:58;;;;;;;8.95;3.03;;;10.30;87.10;;;;;;5076509;28;20032;-66
2021/12/28 09:08:24;;;;;;;8.38;2.60;;;10.30;87.60;;;;;;5076156;28;20037;-67
2021/12/28 09:10:49;;;;;;;7.43;2.33;;;10.40;87.10;;;;;;5059002;28;20357;-65
2021/12/28 09:13:16;;;;;;;8.75;2.25;;;10.30;87.00;;;;;;5076170;28;20361;-65
2021/12/28 09:15:42;;;;;;;6.20;2.38;;;10.30;87.10;;;;;;5075054;28;20413;-66
2021/12/28 09:18:08;;;;;;;7.85;2.63;;;10.30;87.20;;;;;;5075469;28;20384;-65
2021/12/28 09:20:34;;;;;;;6.05;2.10;;;10.30;87.20;;;;;;5075586;28;20016;-66
2021/12/28 09:23:00;;;;;;;6.25;1.98;;;10.40;87.30;;;;;;5075507;28;20032;-66
2021/12/28 09:25:26;;;;;;;8.55;2.75;;;10.40;87.20;;;;;;5076099;28;20028;-67
2021/12/28 09:27:52;;;;;;;7.13;2.53;;;10.40;87.20;;;;;;5076074;28;20029;-66
2021/12/28 09:30:18;;;;;;;6.78;2.35;;;10.40;87.30;;;;;;5075742;28;20428;-66
2021/12/28 09:32:45;;;;;;;4.75;1.88;;;10.40;87.30;;;;;;5074042;28;20031;-65
2021/12/28 09:35:11;;;;;;;7.30;2.60;;;10.40;88.10;;;;;;5074934;28;20117;-65
2021/12/28 09:37:37;;;;;;;5.70;2.22;;;10.40;87.50;;;;;;5075416;28;20105;-66
2021/12/28 09:40:06;;;;;;;4.68;2.13;;;10.50;87.60;;;;;;5057089;28;20029;-64
2021/12/28 09:42:33;;;;;;;7.32;1.90;;;10.40;87.50;;;;;;5075392;28;20123;-64
2021/12/28 09:44:58;;;;;;;6.22;2.38;;;10.40;87.60;;;;;;5074480;28;20028;-66
2021/12/28 09:47:24;;;;;;;6.05;1.80;;;10.50;87.70;;;;;;5074894;28;20032;-64
2021/12/28 09:49:50;;;;;;;5.25;1.98;;;10.50;87.70;;;;;;5074599;28;20376;-64
2021/12/28 09:52:17;;;;;;;4.88;2.15;;;10.50;87.70;;;;;;5074355;28;20365;-65
2021/12/28 09:54:42;;;;;;;6.55;2.40;;;10.50;87.70;;;;;;5075804;28;20472;-64
2021/12/28 09:57:12;;;;;;;5.32;1.88;;;10.50;87.70;;;;;;5074498;28;20074;-64
2021/12/28 09:59:38;;;;;;;4.28;1.80;;;10.50;87.70;;;;;;5054801;28;20032;-63
2021/12/28 10:02:09;;;;;;;3.88;1.90;;;10.60;87.80;;;;;;5070195;28;20044;-64
2021/12/28 10:04:35;;;;;;;4.40;1.77;;;10.60;87.80;;;;;;5073641;28;20040;-64
2021/12/28 10:07:23;;;;;;;3.38;1.83;;;10.60;87.80;;;;;;5075476;28;20369;-64
2021/12/28 10:09:49;;;;;;;5.93;2.00;;;10.60;87.80;;;;;;5057974;28;20028;-64
2021/12/28 10:12:35;;;;;;;5.57;2.08;;;10.60;87.90;;;;;;5075515;28;20032;-64
2021/12/28 10:15:11;;;;;;;4.18;2.20;;;10.70;88.00;;;;;;5074276;28;20040;-64
2021/12/28 10:17:40;;;;;;;6.82;2.17;;;10.70;88.00;;;;;;5075261;28;20066;-63
2021/12/28 10:20:10;;;;;;;5.18;1.88;;;10.70;88.00;;;;;;5074946;28;20483;-64
2021/12/28 10:22:42;;;;;;;4.15;2.00;;;10.70;88.00;;;;;;5058548;28;20032;-64
2021/12/28 10:25:18;;;;;;;5.63;2.00;;;10.70;88.00;;;;;;5073828;28;20029;-64
2021/12/28 10:27:53;;;;;;;4.32;1.98;;;10.80;88.00;;;;;;5074442;28;20437;-64
2021/12/28 10:30:26;;;;;;;5.43;2.53;;;10.80;88.00;;;;;;5074863;28;20040;-64
2021/12/28 10:32:55;;;;;;;3.72;1.92;;;10.80;88.00;;;;;;5075149;28;20167;-64
2021/12/28 10:35:26;;;;;;;3.92;2.10;;;10.80;87.90;;;;;;5074848;28;20028;-64
2021/12/28 10:38:02;;;;;;;7.32;2.30;;;10.90;88.00;;;;;;5074180;28;20020;-65
2021/12/28 10:40:40;;;;;;;3.72;1.88;;;10.90;88.00;;;;;;5074500;28;20055;-64
2021/12/28 10:43:11;;;;;;;4.25;1.95;;;11.00;88.00;;;;;;5054149;28;20449;-64
2021/12/28 10:45:54;;;;;;;3.55;1.90;;;11.00;87.90;;;;;;5074431;28;20033;-64
2021/12/28 10:48:26;;;;;;;5.82;2.33;;;11.00;87.90;;;;;;5057810;28;20090;-64
2021/12/28 10:51:02;;;;;;;4.35;1.98;;;11.00;87.90;;;;;;5073469;28;20334;-65
2021/12/28 10:53:43;;;;;;;6.25;2.10;;;11.00;88.00;;;;;;5073163;28;20025;-65
2021/12/28 10:56:10;;;;;;;4.45;2.00;;;11.00;88.00;;;;;;5069237;28;20024;-65
2021/12/28 10:58:45;;;;;;;4.38;1.98;;;11.00;88.00;;;;;;5074805;28;20074;-64
2021/12/28 11:01:12;;;;;;;5.03;2.10;;;11.00;88.10;;;;;;5089334;28;20024;-65
2021/12/28 11:03:41;;;;;;;4.35;1.92;;;11.00;88.20;;;;;;5056937;28;20033;-65
2021/12/28 11:06:31;;;;;;;4.50;2.20;;;11.10;88.30;;;;;;5056073;28;20361;-65
2021/12/28 11:09:00;;;;;;;4.45;1.88;;;11.10;88.30;;;;;;5057026;28;20326;-64
2021/12/28 11:11:26;;;;;;;4.32;2.00;;;11.10;88.30;;;;;;5057485;28;20031;-64
2021/12/28 11:14:02;;;;;;;5.13;2.40;;;11.10;88.20;;;;;;5073659;28;20101;-64
2021/12/28 11:16:29;;;;;;;5.45;2.35;;;11.10;88.20;;;;;;5073669;28;20051;-65
2021/12/28 11:19:00;;;;;;;4.85;2.17;;;11.10;88.20;;;;;;5073887;28;20028;-64
2021/12/28 11:21:29;;;;;;;4.68;2.28;;;11.20;88.60;;;;;;5074198;28;20021;-65
2021/12/28 11:24:06;;;;;;;5.32;2.40;;;11.20;88.30;;;;;;5054623;28;20041;-64
2021/12/28 11:26:41;;;;;;;5.57;2.40;;;11.20;88.30;;;;;;5057417;28;20025;-64
2021/12/28 11:29:16;;;;;;;4.65;2.20;;;11.20;88.30;;;;;;5074473;28;20085;-64
2021/12/28 11:31:55;;;;;;;6.05;2.88;;;11.20;88.30;;;;;;5073646;28;20079;-64
2021/12/28 11:34:32;;;;;;;5.25;2.50;;;11.20;88.20;;;;;;5072993;28;20071;-63
2021/12/28 11:37:08;;;;;;;5.00;2.33;;;11.20;88.20;;;;;;5074401;28;20093;-64
2021/12/28 11:39:42;;;;;;;5.78;2.25;;;11.30;88.30;;;;;;5074293;28;20483;-64
2021/12/28 11:42:10;;;;;;;4.38;2.10;;;11.20;88.30;;;;;;5073407;28;20028;-64
2021/12/28 11:44:36;;;;;;;5.38;2.40;;;11.20;88.20;;;;;;5056385;28;20021;-64
2021/12/28 11:47:06;;;;;;;5.22;2.30;;;11.30;88.30;;;;;;5073249;28;20361;-64
2021/12/28 11:49:32;;;;;;;6.38;2.78;;;11.30;88.30;;;;;;5072481;28;20021;-64
2021/12/28 11:52:01;;;;;;;6.25;2.58;;;11.30;88.30;;;;;;5073238;28;20021;-64
2021/12/28 11:54:30;;;;;;;4.95;2.35;;;11.30;88.30;;;;;;5073523;28;20036;-64
2021/12/28 11:57:04;;;;;;;4.85;2.40;;;11.30;88.40;;;;;;5074310;28;20327;-64
2021/12/28 11:59:32;;;;;;;6.20;2.58;;;11.30;88.30;;;;;;5073563;28;20465;-65
2021/12/28 12:02:05;;;;;;;5.93;2.58;;;11.30;88.30;;;;;;5073328;28;20473;-64
2021/12/28 12:04:31;;;;;;;5.60;2.60;;;11.30;88.30;;;;;;5056019;28;20033;-64
2021/12/28 12:07:12;;;;;;;5.80;2.67;;;11.30;88.30;;;;;;5073421;28;20352;-65
2021/12/28 12:09:50;;;;;;;4.95;2.55;;;11.30;88.40;;;;;;5072714;28;20106;-64
2021/12/28 12:12:29;;;;;;;5.50;2.35;;;11.30;88.40;;;;;;5056508;28;20365;-64
2021/12/28 12:14:56;;;;;;;5.40;2.70;;;11.40;88.50;;;;;;5073464;28;20040;-64
2021/12/28 12:17:28;;;;;;;5.43;2.47;;;11.30;88.40;;;;;;5077164;28;20029;-64
2021/12/28 12:20:30;;;;;;;7.57;3.47;;;11.30;88.50;;;;;;5076486;28;20249;-64
2021/12/28 12:23:05;;;;;;;6.88;3.03;;;11.30;88.70;;;;;;5077945;28;20342;-64
2021/12/28 12:25:32;;;;;;;4.47;2.45;;;11.30;88.60;;;;;;5076436;28;20445;-64
2021/12/28 12:28:06;;;;;;;5.70;2.20;;;11.30;88.70;;;;;;5069613;28;20039;-65
2021/12/28 12:30:32;;;;;;;5.07;2.33;;;11.30;88.70;;;;;;5047692;28;20090;-64
2021/12/28 12:33:01;;;;;;;4.65;2.13;;;11.30;88.70;;;;;;5067165;28;20364;-64
2021/12/28 12:35:51;;;;;;;4.85;2.08;;;11.40;88.80;;;;;;5068634;28;20342;-64
2021/12/28 12:38:17;;;;;;;3.35;1.80;;;11.30;88.70;;;;;;5070387;28;20036;-64
2021/12/28 12:41:10;;;;;;;4.80;1.80;;;11.40;88.70;;;;;;5046740;28;20047;-64
2021/12/28 12:43:39;;;;;;;4.22;1.80;;;11.40;88.70;;;;;;5071417;28;20020;-64
2021/12/28 12:46:32;;;;;;;4.43;1.80;;;11.30;88.60;;;;;;5069190;28;20087;-64
2021/12/28 12:49:09;;;;;;;3.88;1.60;;;11.30;88.60;;;;;;5067010;28;20042;-71
2021/12/28 12:51:38;;;;;;;5.55;1.67;;;11.30;88.50;;;;;;5067953;28;20116;-70
2021/12/28 12:54:08;;;;;;;5.93;1.88;;;11.30;88.60;;;;;;5070136;28;20104;-71